Time;durP1;ratioP1;P1;durP2;ratioP2;P2;SDS_P1;SDS_P2;PMS_P1;PMS_P2;Temp;Humidity;BMP_temperature;BMP_pressure;BME280_temperature;BME280_humidity;BME280_pressure;Samples;Min_cycle;Max_cycle;Signal;HPM_P1;HPM_P2
2022/06/30 00:02:00;;;;;;;3.27;2.97;;;;;;;19.03;61.53;100621.56;4992165;28;20297;-83
2022/06/30 00:04:27;;;;;;;3.30;2.97;;;;;;;19.03;61.76;100616.16;4988138;28;20214;-83
2022/06/30 00:06:54;;;;;;;3.87;2.47;;;;;;;19.00;61.50;100622.72;4991630;28;20230;-83
2022/06/30 00:09:22;;;;;;;2.83;2.50;;;;;;;18.97;61.55;100616.78;4993775;28;20214;-83
2022/06/30 00:11:49;;;;;;;3.23;2.93;;;;;;;18.93;61.76;100613.53;4996627;28;20666;-83
2022/06/30 00:14:15;;;;;;;4.73;3.03;;;;;;;18.87;61.53;100605.19;4992644;28;20678;-83
2022/06/30 00:16:42;;;;;;;3.43;3.13;;;;;;;18.83;61.70;100609.19;4994479;28;20240;-83
2022/06/30 00:19:08;;;;;;;3.40;3.03;;;;;;;18.80;61.84;100601.41;5002043;28;20232;-83
2022/06/30 00:21:35;;;;;;;3.27;3.07;;;;;;;18.78;62.15;100595.31;4997324;28;20200;-84
2022/06/30 00:24:02;;;;;;;4.20;2.90;;;;;;;18.80;62.13;100601.41;4998563;28;20200;-83
2022/06/30 00:26:29;;;;;;;3.43;2.80;;;;;;;18.80;62.42;100596.03;4992095;28;20225;-82
2022/06/30 00:28:56;;;;;;;2.93;2.73;;;;;;;18.81;62.20;100579.66;4988663;28;20688;-85
2022/06/30 00:31:23;;;;;;;3.53;2.90;;;;;;;18.82;61.96;100584.06;4996261;28;20208;-84
2022/06/30 00:33:50;;;;;;;3.23;2.97;;;;;;;18.83;62.18;100574.97;5001012;28;20210;-83
2022/06/30 00:36:16;;;;;;;3.37;3.07;;;;;;;18.83;61.76;100579.50;5000719;28;20233;-83
2022/06/30 00:38:43;;;;;;;3.23;2.93;;;;;;;18.79;61.86;100570.88;4996703;28;20886;-83
2022/06/30 00:41:10;;;;;;;3.40;3.10;;;;;;;18.74;61.97;100573.19;4986819;28;20216;-83
2022/06/30 00:43:44;;;;;;;3.20;2.80;;;;;;;18.71;62.01;100577.03;5004017;28;20247;-82
2022/06/30 00:46:10;;;;;;;4.93;2.80;;;;;;;18.67;62.48;100572.94;5002416;28;20547;-83
2022/06/30 00:48:37;;;;;;;4.03;2.97;;;;;;;18.65;62.47;100577.63;4999835;28;20214;-84
2022/06/30 00:51:04;;;;;;;3.90;3.23;;;;;;;18.65;62.73;100574.06;4992727;28;20220;-84
2022/06/30 00:53:35;;;;;;;4.57;2.63;;;;;;;18.62;62.82;100564.47;4998025;28;20217;-83
2022/06/30 00:56:03;;;;;;;3.37;2.70;;;;;;;18.60;62.58;100566.47;4997090;28;20233;-83
2022/06/30 00:58:32;;;;;;;2.80;2.60;;;;;;;18.52;62.33;100560.91;4982973;28;20752;-83
2022/06/30 01:01:01;;;;;;;2.97;2.67;;;;;;;18.46;62.44;100549.88;4995473;28;20208;-83
2022/06/30 01:03:28;;;;;;;3.10;2.80;;;;;;;18.39;62.72;100555.88;5000526;28;20208;-84
2022/06/30 01:05:55;;;;;;;2.80;2.60;;;;;;;18.37;62.89;100549.78;5002366;28;20718;-84
2022/06/30 01:08:23;;;;;;;3.00;2.80;;;;;;;18.37;62.98;100549.78;4996042;28;20204;-84
2022/06/30 01:13:35;;;;;;;4.37;2.60;;;;;;;18.30;62.78;100555.91;5003845;28;20252;-85
2022/06/30 01:16:03;;;;;;;3.67;3.00;;;;;;;18.20;62.98;100552.44;5008101;28;20220;-83
2022/06/30 01:18:33;;;;;;;4.20;3.50;;;;;;;18.11;63.05;100550.59;4994288;28;21362;-83
2022/06/30 01:21:00;;;;;;;3.17;2.87;;;;;;;18.02;63.03;100555.91;4996958;28;20789;-84
2022/06/30 01:23:28;;;;;;;3.83;2.80;;;;;;;17.92;63.26;100557.75;4992971;28;20213;-85
2022/06/30 01:25:55;;;;;;;3.47;3.17;;;;;;;17.85;63.48;100561.22;4999179;28;20223;-84
2022/06/30 01:28:21;;;;;;;2.80;2.60;;;;;;;17.77;63.55;100561.91;4994961;28;20207;-83
2022/06/30 01:30:48;;;;;;;2.60;2.40;;;;;;;17.73;63.94;100573.16;5007766;28;20297;-83
2022/06/30 01:33:15;;;;;;;2.63;2.43;;;;;;;17.68;64.17;100563.66;4995264;28;20757;-84
2022/06/30 01:35:41;;;;;;;4.30;2.60;;;;;;;17.63;64.16;100559.66;4997184;28;20220;-84
2022/06/30 01:38:08;;;;;;;2.90;2.70;;;;;;;17.60;64.37;100554.56;4992160;28;20211;-84
2022/06/30 01:40:36;;;;;;;3.13;2.70;;;;;;;17.58;64.37;100557.38;5012010;28;20675;-83
2022/06/30 01:43:05;;;;;;;3.10;2.80;;;;;;;17.55;64.45;100562.25;5003604;28;20215;-84
2022/06/30 01:45:32;;;;;;;3.10;2.80;;;;;;;17.53;64.60;100564.22;4995011;28;20311;-85
2022/06/30 01:47:58;;;;;;;3.37;3.07;;;;;;;17.52;64.82;100567.91;4996319;28;20207;-84
2022/06/30 01:50:27;;;;;;;3.63;3.33;;;;;;;17.49;65.01;100554.72;5003002;28;20206;-83
2022/06/30 01:52:54;;;;;;;4.23;3.27;;;;;;;17.49;65.41;100557.41;4994110;28;20663;-85
2022/06/30 01:55:21;;;;;;;5.13;3.17;;;;;;;17.47;65.56;100562.09;4994620;28;20218;-84
2022/06/30 01:57:50;;;;;;;4.47;3.50;;;;;;;17.44;66.00;100554.28;5000870;28;20213;-84
2022/06/30 02:00:19;;;;;;;4.70;3.00;;;;;;;17.44;66.15;100554.28;4996997;28;20200;-84
2022/06/30 02:02:48;;;;;;;4.23;3.10;;;;;;;17.42;65.79;100556.28;4999522;28;20210;-84
2022/06/30 02:05:15;;;;;;;3.63;3.33;;;;;;;17.37;66.06;100548.66;5003943;28;20603;-83
2022/06/30 02:07:42;;;;;;;3.63;3.33;;;;;;;17.35;66.36;100553.31;4994275;28;20217;-84
2022/06/30 02:10:10;;;;;;;3.50;3.20;;;;;;;17.33;66.50;100545.38;4993032;28;20668;-84
2022/06/30 02:12:49;;;;;;;3.50;3.20;;;;;;;17.32;66.38;100543.69;4992884;28;20662;-85
2022/06/30 02:15:20;;;;;;;3.87;3.00;;;;;;;17.32;66.61;100540.16;4996535;28;20214;-85
2022/06/30 02:17:49;;;;;;;3.43;3.13;;;;;;;17.31;66.68;100542.00;4997123;28;20209;-85
2022/06/30 02:20:20;;;;;;;4.67;3.73;;;;;;;17.29;66.74;100537.75;5007116;28;20228;-84
2022/06/30 02:22:48;;;;;;;4.07;3.67;;;;;;;17.31;66.94;100541.13;4996546;28;20204;-84
2022/06/30 02:25:15;;;;;;;3.43;3.13;;;;;;;17.30;67.00;100534.91;5005135;28;20623;-85
2022/06/30 02:27:42;;;;;;;4.00;3.70;;;;;;;17.29;67.03;100538.59;5004037;28;20223;-85
2022/06/30 02:30:09;;;;;;;3.40;3.10;;;;;;;17.24;66.89;100538.16;4990486;28;20220;-84
2022/06/30 02:32:37;;;;;;;4.67;3.70;;;;;;;17.18;66.65;100546.81;4994501;28;20671;-84
2022/06/30 02:35:04;;;;;;;3.83;3.53;;;;;;;17.12;67.32;100542.00;4991020;28;20299;-84
2022/06/30 02:37:31;;;;;;;3.93;3.60;;;;;;;17.09;67.40;100544.97;5004058;28;20221;-84
2022/06/30 02:39:58;;;;;;;3.53;3.23;;;;;;;17.07;67.97;100541.56;4996267;28;20207;-84
2022/06/30 02:42:24;;;;;;;3.43;3.13;;;;;;;17.07;68.16;100538.88;5003505;28;20206;-84
2022/06/30 02:44:51;;;;;;;4.53;3.20;;;;;;;17.08;67.92;100540.56;5000789;28;20211;-84
2022/06/30 02:47:17;;;;;;;5.00;3.60;;;;;;;17.07;68.03;100538.88;4993563;28;20706;-85
2022/06/30 02:49:45;;;;;;;4.17;3.67;;;;;;;17.06;68.07;100533.63;4997596;28;20782;-84
2022/06/30 02:52:12;;;;;;;3.40;3.10;;;;;;;17.04;68.17;100535.59;4999492;28;20215;-84
2022/06/30 02:54:38;;;;;;;5.80;3.23;;;;;;;17.02;68.33;100541.13;5005274;28;20678;-84
2022/06/30 02:57:06;;;;;;;4.90;3.67;;;;;;;17.00;68.01;100545.81;4992612;28;20357;-84
2022/06/30 02:59:32;;;;;;;3.40;3.10;;;;;;;16.96;68.12;100544.41;4997009;28;20214;-84
2022/06/30 03:01:59;;;;;;;3.63;3.33;;;;;;;16.92;68.10;100540.28;4997754;28;20225;-84
2022/06/30 03:04:25;;;;;;;4.10;3.70;;;;;;;16.91;68.18;100552.88;4991656;28;20207;-83
2022/06/30 03:06:55;;;;;;;3.70;3.40;;;;;;;16.87;68.08;100540.69;5002195;28;20230;-84
2022/06/30 03:09:22;;;;;;;4.90;3.73;;;;;;;16.82;67.60;100542.13;4994164;28;20214;-84
2022/06/30 03:11:49;;;;;;;3.67;3.17;;;;;;;16.71;67.88;100537.72;4994076;28;20198;-85
2022/06/30 03:14:16;;;;;;;4.03;3.23;;;;;;;16.60;68.12;100535.13;4994432;28;20254;-84
2022/06/30 03:16:42;;;;;;;4.53;3.50;;;;;;;16.54;68.94;100532.97;4994632;28;20220;-84
2022/06/30 03:19:09;;;;;;;3.70;3.40;;;;;;;16.52;69.06;100538.47;4999467;28;20210;-84
2022/06/30 03:21:35;;;;;;;3.30;3.00;;;;;;;16.52;69.49;100530.41;4994901;28;20680;-83
2022/06/30 03:24:03;;;;;;;3.80;3.47;;;;;;;16.53;69.43;100526.75;4992654;28;20218;-84
2022/06/30 03:26:30;;;;;;;4.10;3.30;;;;;;;16.55;69.92;100527.47;4994441;28;20236;-85
2022/06/30 03:28:56;;;;;;;3.93;3.53;;;;;;;16.58;69.46;100526.34;4996524;28;20211;-84
2022/06/30 03:31:23;;;;;;;8.90;3.90;;;;;;;16.59;69.52;100525.34;4998721;28;20219;-84
2022/06/30 03:33:49;;;;;;;4.40;3.67;;;;;;;16.59;69.71;100517.28;4991588;28;20513;-84
2022/06/30 03:36:16;;;;;;;4.17;3.40;;;;;;;16.60;69.62;100517.16;4993570;28;20241;-85
2022/06/30 03:38:43;;;;;;;4.93;4.27;;;;;;;16.60;69.76;100511.78;5003159;28;20680;-85
2022/06/30 03:41:10;;;;;;;5.77;3.93;;;;;;;16.62;69.80;100509.78;4997761;28;20219;-84
2022/06/30 03:43:37;;;;;;;5.27;3.83;;;;;;;16.64;69.92;100515.06;4997102;28;20212;-84
2022/06/30 03:46:04;;;;;;;4.13;3.83;;;;;;;16.66;69.74;100515.75;4992056;28;20631;-84
2022/06/30 03:48:30;;;;;;;4.80;4.00;;;;;;;16.68;70.01;100516.47;4984015;28;20647;-83
2022/06/30 03:50:57;;;;;;;4.57;3.97;;;;;;;16.68;70.01;100513.78;4984686;28;20210;-83
2022/06/30 03:53:23;;;;;;;4.00;3.60;;;;;;;16.64;69.32;100513.22;4987740;28;20225;-84
2022/06/30 03:55:50;;;;;;;4.23;3.80;;;;;;;16.53;69.04;100515.13;4981835;28;20225;-84
2022/06/30 03:58:17;;;;;;;3.83;3.43;;;;;;;16.43;69.36;100523.19;4986413;28;20209;-84
2022/06/30 04:00:47;;;;;;;4.47;3.53;;;;;;;16.39;70.31;100518.22;4990362;28;20206;-83
2022/06/30 04:03:15;;;;;;;4.77;3.70;;;;;;;16.35;70.34;100523.00;4990828;28;20217;-84
2022/06/30 04:05:42;;;;;;;4.00;3.60;;;;;;;16.32;70.48;100526.81;4985290;28;20256;-84
2022/06/30 04:08:08;;;;;;;3.40;3.10;;;;;;;16.31;70.62;100526.97;4987958;28;20211;-85
2022/06/30 04:10:35;;;;;;;4.00;3.70;;;;;;;16.30;70.96;100534.16;4985135;28;20202;-84
2022/06/30 04:13:02;;;;;;;4.03;3.40;;;;;;;16.30;70.97;100525.28;4984768;28;20205;-84
2022/06/30 04:15:30;;;;;;;4.10;3.50;;;;;;;16.32;71.32;100528.66;4991976;28;20217;-84
2022/06/30 04:17:57;;;;;;;4.70;3.73;;;;;;;16.35;71.62;100532.91;4991650;28;20208;-84
2022/06/30 04:20:23;;;;;;;6.93;4.07;;;;;;;16.36;71.28;100524.72;5003289;28;20217;-84
2022/06/30 04:22:52;;;;;;;4.93;4.53;;;;;;;16.37;71.73;100521.03;4991925;28;20209;-84
2022/06/30 04:25:19;;;;;;;4.40;4.00;;;;;;;16.36;71.94;100526.56;4989269;28;20211;-85
2022/06/30 04:27:48;;;;;;;4.17;3.77;;;;;;;16.39;71.89;100518.22;4987711;28;20235;-84
2022/06/30 04:30:14;;;;;;;7.23;4.30;;;;;;;16.39;72.25;100516.38;4989565;28;20200;-84
2022/06/30 04:32:42;;;;;;;4.70;4.17;;;;;;;16.41;72.44;100513.56;4992845;28;20685;-85
2022/06/30 04:35:11;;;;;;;4.10;3.63;;;;;;;16.43;73.00;100504.38;4991601;28;20300;-85
2022/06/30 04:37:37;;;;;;;4.63;4.27;;;;;;;16.45;72.76;100502.41;4993435;28;20216;-85
2022/06/30 04:42:50;;;;;;;5.13;4.20;;;;;;;16.46;72.67;100514.84;4994914;28;20245;-85
2022/06/30 04:45:16;;;;;;;4.37;3.97;;;;;;;16.46;72.77;100509.47;4997618;28;20200;-85
2022/06/30 04:47:45;;;;;;;6.87;4.40;;;;;;;16.48;73.04;100520.91;4993613;28;20708;-84
2022/06/30 04:50:11;;;;;;;5.80;4.20;;;;;;;16.50;73.26;100505.50;4991186;28;20584;-85
2022/06/30 04:52:38;;;;;;;4.87;3.97;;;;;;;16.52;73.59;100510.75;4997072;28;20210;-86
2022/06/30 04:55:05;;;;;;;4.90;4.30;;;;;;;16.54;73.76;100516.84;4998523;28;20681;-85
2022/06/30 04:57:32;;;;;;;5.17;4.20;;;;;;;16.56;74.01;100514.88;4995960;28;20718;-86
2022/06/30 04:59:58;;;;;;;4.47;4.17;;;;;;;16.60;74.20;100519.84;4995020;28;20206;-84
2022/06/30 05:02:25;;;;;;;6.63;4.67;;;;;;;16.64;74.14;100524.00;4992854;28;20223;-85
2022/06/30 05:04:53;;;;;;;5.60;4.40;;;;;;;16.65;74.31;100525.69;4998770;28;20818;-84
2022/06/30 05:07:21;;;;;;;5.77;4.87;;;;;;;16.67;74.04;100526.38;5001537;28;20232;-83
2022/06/30 05:09:47;;;;;;;4.67;4.27;;;;;;;16.68;74.14;100532.59;4992283;28;20294;-85
2022/06/30 05:12:14;;;;;;;8.43;4.60;;;;;;;16.70;74.53;100527.94;4990571;28;20201;-84
2022/06/30 05:14:41;;;;;;;5.37;4.67;;;;;;;16.73;74.23;100524.13;4992488;28;20209;-85
2022/06/30 05:17:08;;;;;;;7.70;5.33;;;;;;;16.77;74.48;100525.56;4994340;28;20273;-85
2022/06/30 05:19:34;;;;;;;6.40;4.97;;;;;;;16.80;74.45;100526.13;4997280;28;20211;-85
2022/06/30 05:22:02;;;;;;;10.17;5.93;;;;;;;16.86;74.62;100522.00;5002160;28;20563;-85
2022/06/30 05:27:13;;;;;;;9.30;7.30;;;;;;;16.97;74.19;100514.66;5003030;28;20332;-86
2022/06/30 05:29:40;;;;;;;11.33;7.00;;;;;;;17.05;74.37;100522.00;5001574;28;20338;-85
2022/06/30 05:32:07;;;;;;;10.80;6.80;;;;;;;17.13;74.59;100519.47;5008482;28;20585;-84
2022/06/30 05:34:34;;;;;;;19.80;7.33;;;;;;;17.23;74.31;100519.47;5004116;28;20674;-85
2022/06/30 05:37:02;;;;;;;9.93;5.73;;;;;;;17.34;74.43;100522.88;5006638;28;20216;-86
2022/06/30 05:39:31;;;;;;;8.17;5.60;;;;;;;17.47;74.11;100522.56;5001218;28;20661;-85
2022/06/30 05:41:57;;;;;;;6.80;4.77;;;;;;;17.59;73.61;100532.16;4999326;28;20209;-84
2022/06/30 05:44:24;;;;;;;8.23;4.37;;;;;;;17.74;73.30;100529.88;5003886;28;20287;-86
2022/06/30 05:46:51;;;;;;;10.90;4.53;;;;;;;17.90;72.77;100526.59;4995417;28;20239;-85
2022/06/30 05:49:17;;;;;;;16.80;5.03;;;;;;;18.05;72.09;100525.13;5011851;28;20211;-85
2022/06/30 05:51:43;;;;;;;3.77;3.43;;;;;;;18.19;71.62;100526.47;5001796;28;20200;-84
2022/06/30 05:54:11;;;;;;;7.70;3.83;;;;;;;18.34;71.25;100531.22;5009214;28;20224;-84
2022/06/30 05:56:38;;;;;;;3.90;3.50;;;;;;;18.51;71.14;100524.16;4998990;28;20222;-85
2022/06/30 05:59:04;;;;;;;7.43;4.07;;;;;;;18.70;70.54;100532.16;4998025;28;20205;-85
2022/06/30 06:01:31;;;;;;;5.83;3.60;;;;;;;18.89;70.02;100528.50;4991241;28;20211;-85
2022/06/30 06:03:57;;;;;;;5.67;4.43;;;;;;;19.09;69.56;100531.88;5001575;28;20210;-84
2022/06/30 06:06:24;;;;;;;3.77;3.47;;;;;;;19.28;68.67;100544.38;5006332;28;20764;-85
2022/06/30 06:08:50;;;;;;;5.40;3.87;;;;;;;19.44;68.16;100544.50;4990321;28;20293;-85
2022/06/30 06:11:18;;;;;;;5.07;3.67;;;;;;;19.62;67.95;100533.69;4987297;28;20219;-85
2022/06/30 06:13:45;;;;;;;4.17;3.77;;;;;;;19.80;67.57;100530.94;4984889;28;20610;-84
2022/06/30 06:16:11;;;;;;;4.50;4.13;;;;;;;19.99;67.25;100525.31;4977875;28;20225;-85
2022/06/30 06:18:38;;;;;;;4.60;4.10;;;;;;;20.18;66.51;100526.94;4992050;28;20208;-85
2022/06/30 06:21:04;;;;;;;5.27;4.47;;;;;;;20.34;66.14;100527.84;4986928;28;20575;-85
2022/06/30 06:23:31;;;;;;;4.53;4.10;;;;;;;20.54;66.19;100523.06;5002971;28;20215;-85
2022/06/30 06:25:58;;;;;;;7.80;4.60;;;;;;;20.72;65.44;100520.22;5002997;28;20233;-85
2022/06/30 06:31:10;;;;;;;5.25;3.95;;;;;;;21.05;64.49;100515.69;4998329;28;20215;-85
2022/06/30 06:33:36;;;;;;;5.32;4.82;;;;;;;21.19;64.34;100512.31;4986133;28;20207;-84
2022/06/30 06:36:03;;;;;;;4.72;4.22;;;;;;;21.34;64.12;100512.50;4989017;28;21182;-85
2022/06/30 06:38:29;;;;;;;5.30;4.80;;;;;;;21.51;64.03;100511.47;4994065;28;20207;-84
2022/06/30 06:40:56;;;;;;;5.30;4.85;;;;;;;21.67;63.50;100514.19;4987003;28;20203;-85
2022/06/30 06:43:23;;;;;;;4.70;4.30;;;;;;;21.81;62.96;100512.66;4990266;28;20211;-84
2022/06/30 06:45:51;;;;;;;5.32;4.63;;;;;;;21.94;62.43;100510.22;4987231;28;20234;-84
2022/06/30 06:48:17;;;;;;;5.07;4.57;;;;;;;22.06;62.35;100508.00;4996029;28;20710;-86
2022/06/30 06:50:44;;;;;;;5.13;4.65;;;;;;;22.14;61.95;100497.16;4987451;28;20259;-85
2022/06/30 06:53:10;;;;;;;5.93;4.72;;;;;;;22.22;62.36;100504.38;4994001;28;20216;-85
2022/06/30 06:55:37;;;;;;;5.07;4.57;;;;;;;22.33;62.17;100509.44;4988972;28;20231;-84
2022/06/30 06:58:05;;;;;;;4.75;4.35;;;;;;;22.45;62.34;100489.03;4991316;28;20667;-84
2022/06/30 07:00:31;;;;;;;5.40;4.70;;;;;;;22.59;61.88;100498.28;4996471;28;20234;-85
2022/06/30 07:02:59;;;;;;;5.68;4.95;;;;;;;22.66;61.39;100497.38;5000664;28;20651;-84
2022/06/30 07:05:26;;;;;;;5.65;4.72;;;;;;;22.75;61.50;100490.06;4991574;28;20303;-84
2022/06/30 07:07:58;;;;;;;5.03;4.63;;;;;;;22.90;61.61;100490.16;4993734;28;21766;-84
2022/06/30 07:10:25;;;;;;;5.30;4.90;;;;;;;23.02;61.17;100488.69;4994971;28;20700;-84
2022/06/30 07:12:52;;;;;;;6.85;4.72;;;;;;;23.09;61.07;100490.50;4995328;28;20234;-84
2022/06/30 07:15:19;;;;;;;5.50;5.00;;;;;;;23.20;60.90;100494.66;4993042;28;20207;-85
2022/06/30 07:17:45;;;;;;;5.95;5.45;;;;;;;23.27;60.52;100490.19;4986394;28;20195;-85
2022/06/30 07:20:13;;;;;;;6.30;5.68;;;;;;;23.33;60.77;100485.88;4992653;28;20691;-85
2022/06/30 07:22:40;;;;;;;6.10;5.43;;;;;;;23.40;60.24;100489.56;4992930;28;20277;-82
2022/06/30 07:25:08;;;;;;;6.10;5.50;;;;;;;23.52;60.26;100488.09;4991559;28;20220;-81
2022/06/30 07:27:35;;;;;;;6.85;5.88;;;;;;;23.63;59.90;100490.41;4989762;28;20302;-82
2022/06/30 07:30:02;;;;;;;5.93;5.35;;;;;;;23.73;59.51;100480.06;4997747;28;20195;-82
2022/06/30 07:32:28;;;;;;;6.80;6.20;;;;;;;23.81;59.66;100471.00;5000303;28;20200;-83
2022/06/30 07:34:55;;;;;;;6.45;5.93;;;;;;;23.92;59.54;100470.53;4996706;28;20214;-83
2022/06/30 07:37:23;;;;;;;6.63;6.03;;;;;;;24.00;59.29;100462.28;5000183;28;20243;-82
2022/06/30 07:39:50;;;;;;;6.97;6.28;;;;;;;24.11;59.34;100461.78;4993883;28;20254;-84
2022/06/30 07:42:16;;;;;;;7.60;6.90;;;;;;;24.25;59.57;100467.41;5006828;28;20210;-84
2022/06/30 07:44:43;;;;;;;6.60;6.00;;;;;;;24.36;59.33;100458.78;5000634;28;20204;-81
2022/06/30 07:47:10;;;;;;;7.63;6.90;;;;;;;24.48;58.67;100459.97;4993290;28;20253;-84
2022/06/30 07:49:38;;;;;;;7.03;6.32;;;;;;;24.54;58.34;100467.38;5006791;28;20200;-84
2022/06/30 07:52:05;;;;;;;7.13;6.43;;;;;;;24.58;58.22;100458.59;4994212;28;20279;-82
2022/06/30 07:54:33;;;;;;;8.63;6.57;;;;;;;24.67;58.63;100466.66;4999532;28;20224;-81
2022/06/30 07:57:00;;;;;;;7.30;6.25;;;;;;;24.79;58.48;100460.50;4997190;28;20223;-82
2022/06/30 07:59:27;;;;;;;7.10;6.45;;;;;;;24.92;58.42;100459.78;5000993;28;20206;-81
2022/06/30 08:01:54;;;;;;;7.32;6.72;;;;;;;25.03;57.09;100451.16;5002166;28;20209;-82
2022/06/30 08:04:20;;;;;;;6.85;6.15;;;;;;;25.12;57.22;100449.97;4998186;28;20228;-82
2022/06/30 08:06:47;;;;;;;7.07;6.30;;;;;;;25.27;57.33;100441.69;5001705;28;20227;-82
2022/06/30 08:09:13;;;;;;;9.75;7.13;;;;;;;25.44;56.72;100443.06;5000053;28;20206;-82
2022/06/30 08:11:41;;;;;;;7.55;6.85;;;;;;;25.60;56.35;100452.88;5005979;28;20210;-83
2022/06/30 08:14:07;;;;;;;7.90;7.13;;;;;;;25.75;55.97;100445.44;5001903;28;20226;-82
2022/06/30 08:16:34;;;;;;;6.50;5.90;;;;;;;25.90;55.69;100437.13;4992807;28;20227;-83
2022/06/30 08:19:00;;;;;;;7.68;7.00;;;;;;;26.05;55.25;100442.44;5002697;28;20231;-82
2022/06/30 08:21:27;;;;;;;8.63;7.75;;;;;;;26.18;54.56;100437.03;5001957;28;20199;-81
2022/06/30 08:23:54;;;;;;;8.95;8.15;;;;;;;26.22;53.81;100436.44;5001231;28;20207;-81
2022/06/30 08:26:20;;;;;;;8.10;7.38;;;;;;;26.30;54.02;100427.25;4999779;28;20619;-82
2022/06/30 08:28:48;;;;;;;9.25;7.68;;;;;;;26.41;54.30;100440.31;4993899;28;20231;-81
2022/06/30 08:31:16;;;;;;;8.60;7.90;;;;;;;26.54;53.83;100437.59;4996309;28;20222;-83
2022/06/30 08:33:42;;;;;;;8.90;8.10;;;;;;;26.61;53.01;100437.63;4992893;28;20247;-84
2022/06/30 08:36:09;;;;;;;9.32;8.40;;;;;;;26.67;53.22;100441.44;4991537;28;20238;-81
2022/06/30 08:38:35;;;;;;;9.18;8.38;;;;;;;26.74;52.84;100443.13;5004130;28;20213;-84
2022/06/30 08:43:46;;;;;;;8.82;8.02;;;;;;;26.98;52.91;100440.88;4995385;28;20261;-84
2022/06/30 08:46:16;;;;;;;9.55;8.75;;;;;;;27.10;52.99;100440.03;4988591;28;20235;-83
2022/06/30 08:48:43;;;;;;;9.02;7.95;;;;;;;27.25;52.78;100448.03;4992917;28;20234;-83
2022/06/30 08:51:14;;;;;;;9.02;8.32;;;;;;;27.41;52.23;100446.78;5001962;28;20233;-82
2022/06/30 08:53:45;;;;;;;9.85;8.90;;;;;;;27.54;51.73;100433.94;4985975;28;20211;-84
2022/06/30 08:56:14;;;;;;;8.18;7.55;;;;;;;27.68;51.46;100434.78;4991630;28;20325;-82
2022/06/30 08:58:42;;;;;;;8.93;8.07;;;;;;;27.80;51.17;100432.19;4993788;28;20203;-82
2022/06/30 09:01:09;;;;;;;9.18;8.38;;;;;;;27.85;50.37;100430.50;4998264;28;20218;-82
2022/06/30 09:03:38;;;;;;;10.02;9.13;;;;;;;27.94;50.47;100423.75;4998787;28;20849;-84
2022/06/30 09:06:05;;;;;;;9.65;8.85;;;;;;;28.11;50.04;100418.66;4992941;28;20694;-82
2022/06/30 09:08:32;;;;;;;10.50;9.60;;;;;;;28.24;49.55;100409.56;4993015;28;20223;-84
2022/06/30 09:10:59;;;;;;;10.70;9.60;;;;;;;28.34;48.62;100409.91;4991830;28;20230;-82
2022/06/30 09:13:26;;;;;;;10.38;9.30;;;;;;;28.41;48.19;100410.72;5004645;28;20674;-82
2022/06/30 09:15:53;;;;;;;9.65;8.85;;;;;;;28.49;48.58;100404.97;4993723;28;20627;-82
2022/06/30 09:18:24;;;;;;;9.75;8.77;;;;;;;28.63;47.75;100413.97;4994307;28;20222;-81
2022/06/30 09:20:52;;;;;;;9.32;8.52;;;;;;;28.73;47.61;100414.31;4993378;28;20210;-82
2022/06/30 09:23:20;;;;;;;9.95;9.00;;;;;;;28.83;47.10;100406.50;4991815;28;20576;-84
2022/06/30 09:25:49;;;;;;;9.00;8.15;;;;;;;28.93;47.04;100401.34;4988908;28;20219;-82
2022/06/30 09:28:16;;;;;;;9.40;8.60;;;;;;;29.07;47.05;100406.72;4988311;28;20227;-82
2022/06/30 09:30:43;;;;;;;8.70;8.00;;;;;;;29.14;46.48;100405.59;4990170;28;20214;-82
2022/06/30 09:33:10;;;;;;;9.90;8.98;;;;;;;29.13;46.39;100394.84;4997520;28;20233;-84
2022/06/30 09:35:38;;;;;;;9.45;8.15;;;;;;;29.20;46.22;100398.38;4994808;28;20210;-82
2022/06/30 09:38:08;;;;;;;9.43;8.68;;;;;;;29.30;45.95;100405.03;4998670;28;20199;-83
2022/06/30 09:40:35;;;;;;;8.80;8.07;;;;;;;29.32;45.66;100408.38;4995584;28;20754;-83
2022/06/30 09:43:03;;;;;;;8.43;7.72;;;;;;;29.29;46.03;100405.25;4996159;28;20207;-83
2022/06/30 09:45:43;;;;;;;9.77;8.98;;;;;;;29.26;45.99;100409.28;5005107;28;20209;-82
2022/06/30 09:48:11;;;;;;;9.02;8.32;;;;;;;29.25;46.44;100398.53;5005770;28;20219;-82
2022/06/30 09:50:38;;;;;;;9.15;8.25;;;;;;;29.38;45.91;100401.13;4990999;28;20203;-82
2022/06/30 09:53:10;;;;;;;10.02;9.00;;;;;;;29.52;45.83;100401.91;4993468;28;20219;-82
2022/06/30 09:55:38;;;;;;;8.60;7.90;;;;;;;29.65;45.61;100390.78;4995949;28;20294;-83
2022/06/30 09:58:05;;;;;;;8.45;7.75;;;;;;;29.72;45.11;100399.78;4995863;28;20210;-84
2022/06/30 10:00:42;;;;;;;10.10;9.07;;;;;;;29.82;45.16;100396.50;4995134;28;20569;-82
2022/06/30 10:03:08;;;;;;;9.98;9.07;;;;;;;29.92;44.99;100394.03;4995078;28;20207;-81
2022/06/30 10:05:35;;;;;;;10.10;9.23;;;;;;;30.03;44.19;100396.06;4993222;28;20207;-81
2022/06/30 10:08:02;;;;;;;10.20;8.95;;;;;;;30.12;44.12;100396.56;4988044;28;20228;-85
2022/06/30 10:10:30;;;;;;;8.93;8.15;;;;;;;30.17;44.29;100396.72;4991743;28;20200;-83
2022/06/30 10:12:57;;;;;;;9.18;8.35;;;;;;;30.24;44.36;100395.56;4984753;28;20578;-82
2022/06/30 10:15:24;;;;;;;8.93;8.23;;;;;;;30.32;44.21;100389.75;4988298;28;20212;-82
2022/06/30 10:17:53;;;;;;;8.52;7.78;;;;;;;30.38;43.97;100391.56;4995385;28;20575;-82
2022/06/30 10:20:20;;;;;;;8.98;7.97;;;;;;;30.45;43.52;100390.66;4993072;28;20257;-82
2022/06/30 10:22:47;;;;;;;9.43;8.52;;;;;;;30.50;43.33;100388.00;4997550;28;20210;-82
2022/06/30 10:25:14;;;;;;;8.50;7.90;;;;;;;30.53;43.06;100393.06;4989879;28;20725;-84
2022/06/30 10:27:44;;;;;;;9.43;8.52;;;;;;;30.50;42.67;100393.50;4984750;28;20243;-84
2022/06/30 10:30:14;;;;;;;9.35;8.55;;;;;;;30.50;43.67;100388.00;4986008;28;20640;-83
2022/06/30 10:32:55;;;;;;;9.65;8.85;;;;;;;30.57;43.09;100388.81;4988922;28;20208;-83
2022/06/30 10:35:29;;;;;;;9.25;8.55;;;;;;;30.63;43.29;100387.88;4991645;28;20210;-83
2022/06/30 10:38:00;;;;;;;9.57;8.48;;;;;;;30.71;42.69;100384.78;4990311;28;20204;-82
2022/06/30 10:40:44;;;;;;;9.73;8.93;;;;;;;30.81;42.83;100375.97;4988338;28;20668;-82
2022/06/30 10:43:14;;;;;;;9.20;8.43;;;;;;;30.94;42.81;100373.00;4992365;28;20207;-83
2022/06/30 10:45:58;;;;;;;9.15;8.40;;;;;;;31.11;42.33;100378.66;4995845;28;20227;-82
2022/06/30 10:48:27;;;;;;;8.95;8.27;;;;;;;31.19;42.32;100370.03;4997603;28;20234;-82
2022/06/30 10:50:54;;;;;;;9.55;8.75;;;;;;;31.26;42.24;100365.25;5000399;28;20238;-82
2022/06/30 10:53:53;;;;;;;8.90;8.10;;;;;;;31.36;41.94;100362.72;4998398;28;20852;-83
2022/06/30 10:56:21;;;;;;;8.73;8.00;;;;;;;31.45;42.08;100368.72;4990431;28;20231;-83
2022/06/30 10:59:12;;;;;;;8.73;8.07;;;;;;;31.53;41.73;100366.41;4996543;28;20231;-82
2022/06/30 11:01:40;;;;;;;8.85;8.13;;;;;;;31.49;41.26;100358.91;4991381;28;20658;-85
2022/06/30 11:04:11;;;;;;;8.93;8.13;;;;;;;31.50;41.17;100360.59;4992485;28;20819;-84
2022/06/30 11:07:11;;;;;;;8.18;7.43;;;;;;;31.54;41.24;100357.09;5002713;28;20242;-85
2022/06/30 11:10:01;;;;;;;8.50;7.70;;;;;;;31.64;41.22;100356.50;4998390;28;20207;-84
2022/06/30 11:13:01;;;;;;;8.25;7.55;;;;;;;31.72;40.98;100364.38;4994971;28;20232;-84
2022/06/30 11:15:58;;;;;;;8.05;7.38;;;;;;;31.74;40.33;100363.06;4997319;28;20203;-83
2022/06/30 11:18:27;;;;;;;8.23;7.50;;;;;;;31.75;39.88;100352.91;4981531;28;20205;-83
2022/06/30 11:20:55;;;;;;;9.00;8.20;;;;;;;31.76;39.92;100346.31;4993200;28;20215;-82
2022/06/30 11:23:22;;;;;;;10.48;7.50;;;;;;;31.82;40.41;100336.25;4998894;28;20199;-82
2022/06/30 11:28:38;;;;;;;8.88;8.07;;;;;;;31.91;39.83;100341.13;4992792;28;20223;-83
2022/06/30 11:31:22;;;;;;;8.27;7.60;;;;;;;31.97;40.23;100334.63;5001473;28;20210;-82
2022/06/30 11:33:56;;;;;;;8.18;7.38;;;;;;;32.03;39.44;100332.81;4998167;28;20208;-84
2022/06/30 11:36:23;;;;;;;7.70;7.00;;;;;;;32.00;39.35;100333.31;4996575;28;20243;-84
2022/06/30 11:38:55;;;;;;;7.60;6.95;;;;;;;31.94;38.97;100331.53;4999439;28;20839;-83
2022/06/30 11:44:26;;;;;;;7.60;6.95;;;;;;;31.90;38.80;100320.16;4933062;29;20224;-82
2022/06/30 11:46:58;;;;;;;8.10;7.28;;;;;;;31.94;38.64;100317.75;4934805;29;20236;-82
2022/06/30 11:49:27;;;;;;;8.18;7.38;;;;;;;32.02;38.79;100314.63;4963718;28;20230;-84